This is the latest recevied weather packets stored in our database for station/object IZ4MEH-10. If no packets are shown the sender has not sent any weather packets the latest 10 day(s).
| Time | Temp. | Humidity | Pressure | Rain* | Wind** | Luminosity | Snow |
|---|---|---|---|---|---|---|---|
| 1777745370 | 21.67° C | 32% | 1018 hPa | - | - | - | - |
| 1777743568 | 22.22° C | 30% | 1017.9 hPa | - | - | - | - |
| 1777741767 | 22.78° C | 28% | 1018.1 hPa | - | - | - | - |
| 1777739967 | 23.33° C | 27% | 1018.3 hPa | - | - | - | - |
| 1777738165 | 23.33° C | 27% | 1018.5 hPa | - | - | - | - |
| 1777736365 | 23.89° C | 27% | 1018.7 hPa | - | - | - | - |
| 1777734563 | 23.89° C | 27% | 1019.1 hPa | - | - | - | - |
| 1777732762 | 24.44° C | 26% | 1019.4 hPa | - | - | - | - |
| 1777730960 | 24.44° C | 26% | 1019.8 hPa | - | - | - | - |
| 1777729159 | 25° C | 26% | 1020.2 hPa | - | - | - | - |
| 1777727358 | 24.44° C | 26% | 1020.7 hPa | - | - | - | - |
| 1777725557 | 24.44° C | 26% | 1021 hPa | - | - | - | - |
| 1777723756 | 25.56° C | 25% | 1021.4 hPa | - | - | - | - |
| 1777721954 | 24.44° C | 25% | 1021.9 hPa | - | - | - | - |
| 1777720153 | 25° C | 25% | 1022.3 hPa | - | - | - | - |
| 1777718351 | 29.44° C | 21% | 1022.8 hPa | - | - | - | - |
| 1777716550 | 33.89° C | 17% | 1023.2 hPa | - | - | - | - |
| 1777714748 | 35.56° C | 17% | 1023.5 hPa | - | - | - | - |
| 1777712947 | 32.78° C | 19% | 1023.9 hPa | - | - | - | - |
| 1777711145 | 33.89° C | 21% | 1024 hPa | - | - | - | - |
| 1777709344 | 33.33° C | 21% | 1024.2 hPa | - | - | - | - |
| 1777707543 | 31.11° C | 23% | 1024.3 hPa | - | - | - | - |
| 1777705741 | 30.56° C | 24% | 1024.5 hPa | - | - | - | - |
| 1777703940 | 28.33° C | 27% | 1024.7 hPa | - | - | - | - |
| 1777702139 | 25.56° C | 30% | 1024.7 hPa | - | - | - | - |
* Rain since midnight (hover to see other rain measurements)
** Current wind speed in m/s (hover to see current wind gust speed)